createdAt,value
2022-09-26T00:04:00.987Z,11.06
2022-09-26T00:09:24.983Z,11.07
2022-09-26T00:14:56.013Z,11.09
2022-09-26T00:20:23.999Z,11.08
2022-09-26T00:25:47.967Z,11.09
2022-09-26T00:31:15.055Z,11.08
2022-09-26T00:36:42.017Z,11.07
2022-09-26T00:42:06.984Z,11.07
2022-09-26T00:47:57.009Z,11.04
2022-09-26T00:53:26.995Z,11.04
2022-09-26T00:58:58.011Z,11.02
2022-09-26T01:04:23.018Z,10.98
2022-09-26T01:09:50.033Z,10.97
2022-09-26T01:15:17.020Z,10.97
2022-09-26T01:20:54.635Z,10.97
2022-09-26T01:26:42.017Z,10.97
2022-09-26T01:32:32.043Z,10.96
2022-09-26T01:38:09.038Z,10.93
2022-09-26T01:43:40.030Z,10.91
2022-09-26T01:49:18.030Z,10.82
2022-09-26T01:54:47.070Z,10.75
2022-09-26T02:00:16.178Z,10.68
2022-09-26T02:05:49.063Z,10.69
2022-09-26T02:11:19.050Z,10.66
2022-09-26T02:16:56.098Z,10.67
2022-09-26T02:22:24.067Z,10.67
2022-09-26T02:27:48.086Z,10.70
2022-09-26T02:33:19.105Z,10.68
2022-09-26T02:38:48.057Z,10.66
2022-09-26T02:44:58.794Z,10.65
2022-09-26T02:50:47.549Z,10.61
2022-09-26T02:56:24.084Z,10.59
2022-09-26T03:02:03.094Z,10.57
2022-09-26T03:07:35.156Z,10.54
2022-09-26T03:13:11.120Z,10.49
2022-09-26T03:18:42.100Z,10.50
2022-09-26T03:24:07.138Z,10.46
2022-09-26T03:29:35.061Z,10.41
2022-09-26T03:35:06.063Z,10.40
2022-09-26T03:40:31.196Z,10.31
2022-09-26T03:46:23.119Z,10.29
2022-09-26T03:51:48.100Z,10.18
2022-09-26T03:57:13.103Z,10.09
2022-09-26T04:02:51.120Z,9.96
2022-09-26T04:08:26.117Z,9.89
2022-09-26T04:13:52.951Z,9.83
2022-09-26T04:19:26.231Z,9.78
2022-09-26T04:24:51.144Z,9.71
2022-09-26T04:30:18.150Z,9.62
2022-09-26T04:35:50.166Z,9.52
2022-09-26T04:41:18.105Z,9.39
2022-09-26T04:46:43.095Z,9.32
2022-09-26T04:52:13.130Z,9.23
2022-09-26T04:57:39.175Z,9.13
2022-09-26T05:03:03.150Z,9.08
2022-09-26T05:08:31.199Z,9.04
2022-09-26T05:14:02.154Z,8.99
2022-09-26T05:19:28.158Z,8.92
2022-09-26T05:25:27.206Z,8.83
2022-09-26T05:30:52.165Z,8.76
2022-09-26T05:36:17.171Z,8.74
2022-09-26T05:41:45.161Z,8.70
2022-09-26T05:47:09.253Z,8.69
2022-09-26T05:52:34.155Z,8.70
2022-09-26T05:58:14.143Z,8.74
2022-09-26T06:04:06.194Z,8.79
2022-09-26T06:09:48.165Z,8.79
2022-09-26T06:15:42.198Z,8.81
2022-09-26T06:21:10.184Z,8.84
2022-09-26T06:26:38.166Z,8.86
2022-09-26T06:32:05.237Z,8.92
2022-09-26T06:37:51.174Z,8.98
2022-09-26T06:43:16.163Z,9.03
2022-09-26T06:49:02.205Z,9.09
2022-09-26T06:54:39.264Z,9.15
2022-09-26T07:00:04.224Z,9.17
2022-09-26T07:05:50.237Z,9.28
2022-09-26T07:17:03.182Z,9.38
2022-09-26T07:22:58.195Z,9.55
2022-09-26T07:28:23.200Z,9.66
2022-09-26T07:33:48.193Z,9.73
2022-09-26T07:39:16.403Z,9.81
2022-09-26T07:45:20.414Z,9.86
2022-09-26T07:50:25.234Z,9.95
2022-09-26T07:56:11.257Z,10.12
2022-09-26T08:01:52.325Z,10.29
2022-09-26T08:07:23.276Z,10.35
2022-09-26T08:13:03.243Z,10.57
2022-09-26T08:18:42.299Z,10.68
2022-09-26T08:24:06.302Z,10.81
2022-09-26T08:30:01.232Z,10.92
2022-09-26T08:35:25.248Z,11.09
2022-09-26T08:41:16.211Z,11.30
2022-09-26T08:47:24.279Z,11.47
2022-09-26T08:53:20.300Z,11.58
2022-09-26T08:58:55.233Z,11.76
2022-09-26T09:04:27.246Z,11.95
2022-09-26T09:09:54.253Z,12.10
2022-09-26T09:15:55.359Z,12.35
2022-09-26T09:21:53.286Z,12.61
2022-09-26T09:28:08.669Z,12.74
2022-09-26T09:33:39.312Z,12.78
2022-09-26T09:39:34.269Z,13.05
2022-09-26T09:45:15.301Z,13.26
2022-09-26T09:50:50.262Z,13.38
2022-09-26T09:56:29.319Z,13.44
2022-09-26T10:01:57.292Z,13.46
2022-09-26T10:07:23.331Z,13.51
2022-09-26T10:13:20.282Z,13.75
2022-09-26T10:19:15.281Z,13.70
2022-09-26T10:24:48.295Z,13.83
2022-09-26T10:30:32.403Z,13.87
2022-09-26T10:36:04.300Z,14.02
2022-09-26T10:41:34.361Z,13.91
2022-09-26T10:47:03.349Z,14.04
2022-09-26T10:52:50.326Z,14.18
2022-09-26T10:58:24.339Z,14.24
2022-09-26T11:03:59.352Z,14.27
2022-09-26T11:09:47.331Z,14.37
2022-09-26T11:15:42.329Z,14.26
2022-09-26T11:21:28.206Z,14.34
2022-09-26T11:27:00.335Z,14.32
2022-09-26T11:32:30.377Z,14.42
2022-09-26T11:38:26.386Z,14.48
2022-09-26T11:44:02.343Z,14.61
2022-09-26T11:50:09.313Z,14.48
2022-09-26T11:56:09.351Z,14.26
2022-09-26T12:01:56.326Z,14.26
2022-09-26T12:07:28.366Z,14.30
2022-09-26T12:13:05.411Z,14.59
2022-09-26T12:18:41.398Z,14.56
2022-09-26T12:24:11.382Z,14.92
2022-09-26T12:29:53.376Z,14.97
2022-09-26T12:35:36.446Z,14.96
2022-09-26T12:41:12.483Z,15.23
2022-09-26T12:47:05.366Z,15.34
2022-09-26T12:52:45.363Z,15.41
2022-09-26T12:58:26.445Z,15.62
2022-09-26T13:04:28.393Z,15.37
2022-09-26T13:10:11.412Z,15.10
2022-09-26T13:15:42.407Z,15.00
2022-09-26T13:21:14.407Z,14.90
2022-09-26T13:26:44.419Z,14.74
2022-09-26T13:32:16.400Z,14.77
2022-09-26T13:38:07.496Z,14.58
2022-09-26T13:43:51.435Z,14.36
2022-09-26T13:49:23.434Z,13.95
2022-09-26T13:55:04.421Z,13.38
2022-09-26T14:01:01.435Z,13.65
2022-09-26T14:06:40.525Z,14.26
2022-09-26T14:12:29.433Z,14.63
2022-09-26T14:18:18.469Z,15.16
2022-09-26T14:23:55.430Z,15.21
2022-09-26T14:29:46.466Z,15.38
2022-09-26T14:35:12.476Z,15.66
2022-09-26T14:40:41.519Z,15.59
2022-09-26T14:46:18.506Z,15.76
2022-09-26T14:51:47.488Z,15.89
2022-09-26T14:57:20.732Z,15.98
2022-09-26T15:02:51.532Z,15.91
2022-09-26T15:08:17.522Z,15.61
2022-09-26T15:13:46.517Z,15.12
2022-09-26T15:19:18.499Z,14.68
2022-09-26T15:24:45.507Z,14.43
2022-09-26T15:30:12.505Z,14.15
2022-09-26T15:35:41.565Z,13.91
2022-09-26T15:41:15.561Z,13.64
2022-09-26T15:46:41.568Z,13.37
2022-09-26T15:52:11.510Z,13.13
2022-09-26T15:57:36.510Z,12.95
2022-09-26T16:03:05.569Z,12.81
2022-09-26T16:08:36.524Z,12.66
2022-09-26T16:14:06.551Z,12.60
2022-09-26T16:19:44.915Z,12.33
2022-09-26T16:25:35.535Z,12.14
2022-09-26T16:31:22.602Z,12.00
2022-09-26T16:36:48.531Z,11.93
2022-09-26T16:42:24.526Z,11.79
2022-09-26T16:47:56.542Z,11.77
2022-09-26T16:53:21.551Z,11.72
2022-09-26T16:58:48.588Z,11.65
2022-09-26T17:04:22.525Z,11.62
2022-09-26T17:09:48.572Z,11.55
2022-09-26T17:15:26.620Z,11.53
2022-09-26T17:20:54.573Z,11.47
2022-09-26T17:26:19.589Z,11.44
2022-09-26T17:31:47.579Z,11.41
2022-09-26T17:37:13.567Z,11.41
2022-09-26T17:42:38.562Z,11.40
2022-09-26T17:48:13.583Z,11.41
2022-09-26T17:53:46.180Z,11.43
2022-09-26T17:59:12.657Z,11.47
2022-09-26T18:04:41.570Z,11.44
2022-09-26T18:10:06.587Z,11.44
2022-09-26T18:15:37.633Z,11.44
2022-09-26T18:21:10.582Z,11.43
2022-09-26T18:26:43.578Z,11.35
2022-09-26T18:32:09.580Z,11.34
2022-09-26T18:37:36.584Z,11.29
2022-09-26T18:43:03.644Z,11.24
2022-09-26T18:48:40.615Z,11.22
2022-09-26T18:54:11.512Z,11.13
2022-09-26T18:59:37.585Z,11.14
2022-09-26T19:05:06.626Z,11.10
2022-09-26T19:10:37.610Z,11.09
2022-09-26T19:16:08.668Z,11.07
2022-09-26T19:21:40.616Z,11.07
2022-09-26T19:27:10.634Z,11.07
2022-09-26T19:32:40.617Z,11.05
2022-09-26T19:38:04.621Z,11.08
2022-09-26T19:43:32.656Z,11.05
2022-09-26T19:48:56.656Z,11.04
2022-09-26T19:54:26.644Z,11.03
2022-09-26T19:59:54.642Z,11.00
2022-09-26T20:05:26.631Z,10.93
2022-09-26T20:10:51.629Z,10.94
2022-09-26T20:16:21.793Z,10.91
2022-09-26T20:21:46.659Z,10.91
2022-09-26T20:27:14.660Z,10.89
2022-09-26T20:32:41.663Z,10.87
2022-09-26T20:38:12.638Z,10.83
2022-09-26T20:43:43.663Z,10.83
2022-09-26T20:49:14.819Z,10.83
2022-09-26T20:54:43.686Z,10.77
2022-09-26T21:00:08.781Z,10.73
2022-09-26T21:05:38.681Z,10.72
2022-09-26T21:11:05.661Z,10.73
2022-09-26T21:16:31.708Z,10.70
2022-09-26T21:22:02.071Z,10.72
2022-09-26T21:27:31.682Z,10.74
2022-09-26T21:32:59.723Z,10.78
2022-09-26T21:38:26.711Z,10.77
2022-09-26T21:43:55.694Z,10.77
2022-09-26T21:49:19.680Z,10.78
2022-09-26T21:54:50.677Z,10.79
2022-09-26T22:00:16.704Z,10.78
2022-09-26T22:05:41.693Z,10.78
2022-09-26T22:11:11.709Z,10.79
2022-09-26T22:16:36.798Z,10.79
2022-09-26T22:22:01.701Z,10.82
2022-09-26T22:27:29.700Z,10.81
2022-09-26T22:32:53.736Z,10.83
2022-09-26T22:38:18.720Z,10.82
2022-09-26T22:43:46.733Z,10.86
2022-09-26T22:49:12.785Z,10.85
2022-09-26T22:54:36.719Z,10.86
2022-09-26T23:00:04.771Z,10.89
2022-09-26T23:05:28.715Z,10.95
2022-09-26T23:10:58.773Z,10.99
2022-09-26T23:16:27.811Z,11.01
2022-09-26T23:21:53.747Z,11.02
2022-09-26T23:27:17.735Z,11.03
2022-09-26T23:32:45.724Z,11.03
2022-09-26T23:38:11.748Z,11.04
2022-09-26T23:43:36.747Z,11.04
2022-09-26T23:49:03.769Z,11.08
2022-09-26T23:54:28.751Z,11.06
2022-09-26T23:59:59.752Z,11.08
